Time,TemperatureF,DewpointF,PressureIn,WindDirection,WindDirectionDegrees,WindSpeedMPH,WindSpeedGustMPH,Humidity,HourlyPrecipIn,Conditions,Clouds,dailyrainin,SoftwareType,DateUTC
2013-06-24 00:30:00,57.7,52.0,30.33,West,276,0.0,0.0,83,0.00,,,-99.99,wx200d/1.3,2013-06-24 07:30:00,
2013-06-24 00:45:00,57.7,52.0,30.30,West,276,0.0,0.0,83,0.00,,,-99.99,wx200d/1.3,2013-06-24 07:45:00,
2013-06-24 01:00:00,57.4,52.0,30.33,West,275,0.0,0.0,83,0.00,,,-99.99,wx200d/1.3,2013-06-24 08:00:00,
2013-06-24 01:15:00,57.2,52.0,30.30,West,274,0.0,0.0,83,0.00,,,-99.99,wx200d/1.3,2013-06-24 08:15:00,
2013-06-24 01:30:00,57.2,52.0,30.30,West,274,0.0,0.0,83,0.00,,,-99.99,wx200d/1.3,2013-06-24 08:30:00,
2013-06-24 01:45:00,57.2,52.0,30.30,West,274,0.0,0.0,83,0.00,,,-99.99,wx200d/1.3,2013-06-24 08:45:00,
2013-06-24 02:00:00,57.2,52.0,30.30,West,274,0.0,0.0,83,0.00,,,-99.99,wx200d/1.3,2013-06-24 09:00:00,
2013-06-24 02:15:00,56.7,52.0,30.33,East,84,0.0,0.0,84,0.00,,,-99.99,wx200d/1.3,2013-06-24 09:15:00,
2013-06-24 02:31:00,56.7,52.0,30.30,West,265,0.0,0.0,84,0.00,,,-99.99,wx200d/1.3,2013-06-24 09:31:00,
2013-06-24 03:00:00,56.7,52.0,30.30,East,94,0.0,0.0,84,0.00,,,-99.99,wx200d/1.3,2013-06-24 10:00:00,
2013-06-24 03:15:00,56.5,52.0,30.30,West,277,0.0,0.0,84,0.00,,,-99.99,wx200d/1.3,2013-06-24 10:15:00,
2013-06-24 03:30:00,56.5,52.0,30.30,West,277,0.0,0.0,84,0.00,,,-99.99,wx200d/1.3,2013-06-24 10:30:00,
2013-06-24 03:45:00,56.7,52.0,30.30,West,277,0.0,0.0,84,0.00,,,-99.99,wx200d/1.3,2013-06-24 10:45:00,
2013-06-24 04:00:00,56.7,52.0,30.30,West,277,0.0,0.0,84,0.00,,,-99.99,wx200d/1.3,2013-06-24 11:00:00,
2013-06-24 04:15:00,56.5,52.0,30.30,West,277,0.0,0.0,83,0.00,,,-99.99,wx200d/1.3,2013-06-24 11:15:00,
2013-06-24 04:45:00,56.5,52.0,30.30,West,277,0.0,0.0,84,0.00,,,-99.99,wx200d/1.3,2013-06-24 11:45:00,
2013-06-24 05:01:00,56.5,52.0,30.30,West,277,0.0,0.0,83,0.00,,,-99.99,wx200d/1.3,2013-06-24 12:01:00,
2013-06-24 05:15:00,56.5,52.0,30.33,West,272,0.0,0.0,83,0.00,,,-99.99,wx200d/1.3,2013-06-24 12:15:00,
2013-06-24 05:30:00,56.3,52.0,30.33,West,272,0.0,0.0,83,0.00,,,-99.99,wx200d/1.3,2013-06-24 12:30:00,
2013-06-24 05:46:00,56.3,52.0,30.33,West,272,0.0,0.0,83,0.00,,,-99.99,wx200d/1.3,2013-06-24 12:46:00,
2013-06-24 06:00:00,56.3,52.0,30.33,West,272,0.0,0.0,83,0.00,,,-99.99,wx200d/1.3,2013-06-24 13:00:00,
2013-06-24 06:15:00,56.3,52.0,30.33,West,272,0.0,0.0,83,0.00,,,-99.99,wx200d/1.3,2013-06-24 13:15:00,
2013-06-24 06:45:00,56.7,52.0,30.33,West,272,0.0,0.0,82,0.00,,,-99.99,wx200d/1.3,2013-06-24 13:45:00,
2013-06-24 07:00:00,57.0,52.0,30.33,West,272,0.0,0.0,82,0.00,,,-99.99,wx200d/1.3,2013-06-24 14:00:00,
2013-06-24 07:16:00,57.0,52.0,30.33,West,272,0.0,0.0,82,0.00,,,-99.99,wx200d/1.3,2013-06-24 14:16:00,
2013-06-24 07:30:00,57.2,52.0,30.33,West,272,0.0,0.0,81,0.00,,,-99.99,wx200d/1.3,2013-06-24 14:30:00,
2013-06-24 07:45:00,57.6,52.0,30.33,West,272,0.0,0.0,81,0.00,,,-99.99,wx200d/1.3,2013-06-24 14:45:00,
2013-06-24 08:00:00,58.6,54.0,30.33,West,272,0.0,0.0,81,0.00,,,-99.99,wx200d/1.3,2013-06-24 15:00:00,
2013-06-24 08:15:00,59.5,52.0,30.33,West,272,0.0,0.0,78,0.00,,,-99.99,wx200d/1.3,2013-06-24 15:15:00,
2013-06-24 08:30:00,60.6,54.0,30.36,West,272,0.0,0.0,76,0.00,,,-99.99,wx200d/1.3,2013-06-24 15:30:00,
2013-06-24 08:45:00,60.6,50.0,30.36,West,272,0.0,0.0,69,0.00,,,-99.99,wx200d/1.3,2013-06-24 15:45:00,
2013-06-24 09:00:00,61.5,50.0,30.36,West,270,0.0,0.0,66,0.00,,,-99.99,wx200d/1.3,2013-06-24 16:00:00,
2013-06-24 09:15:00,62.2,48.0,30.36,West,270,0.0,0.0,60,0.00,,,-99.99,wx200d/1.3,2013-06-24 16:15:00,
2013-06-24 09:30:00,61.9,48.0,30.36,West,270,0.0,0.0,58,0.00,,,-99.99,wx200d/1.3,2013-06-24 16:30:00,
2013-06-24 09:45:00,62.2,46.0,30.36,West,270,0.0,0.0,56,0.00,,,-99.99,wx200d/1.3,2013-06-24 16:45:00,
2013-06-24 10:00:00,62.2,46.0,30.36,West,265,0.0,0.0,54,0.00,,,-99.99,wx200d/1.3,2013-06-24 17:00:00,
2013-06-24 10:15:00,62.8,45.0,30.36,West,268,0.0,0.0,52,0.00,,,-99.99,wx200d/1.3,2013-06-24 17:15:00,
2013-06-24 10:30:00,63.0,43.0,30.36,ENE,74,0.0,0.0,47,0.00,,,-99.99,wx200d/1.3,2013-06-24 17:30:00,
2013-06-24 10:45:00,64.4,43.0,30.39,WNW,282,0.0,0.0,44,0.00,,,-99.99,wx200d/1.3,2013-06-24 17:45:00,
2013-06-24 11:00:00,65.7,41.0,30.36,West,275,0.0,0.0,41,0.00,,,-99.99,wx200d/1.3,2013-06-24 18:00:00,
2013-06-24 11:15:00,67.1,41.0,30.36,East,88,0.0,0.0,36,0.00,,,-99.99,wx200d/1.3,2013-06-24 18:15:00,
2013-06-24 11:30:00,68.2,39.0,30.39,WSW,254,0.0,0.0,34,0.00,,,-99.99,wx200d/1.3,2013-06-24 18:30:00,
2013-06-24 11:45:00,68.7,37.0,30.39,NE,56,0.0,0.0,33,0.00,,,-99.99,wx200d/1.3,2013-06-24 18:45:00,
2013-06-24 12:00:00,68.2,37.0,30.39,East,85,0.0,0.0,33,0.00,,,-99.99,wx200d/1.3,2013-06-24 19:00:00,
2013-06-24 12:15:00,67.5,37.0,30.39,West,276,0.0,3.1,33,0.00,,,-99.99,wx200d/1.3,2013-06-24 19:15:00,
2013-06-24 12:30:00,66.9,37.0,30.39,East,100,0.0,0.0,34,0.00,,,-99.99,wx200d/1.3,2013-06-24 19:30:00,
2013-06-24 12:45:00,65.3,37.0,30.39,NE,54,0.0,0.0,35,0.00,,,-99.99,wx200d/1.3,2013-06-24 19:45:00,
2013-06-24 13:00:00,66.2,37.0,30.39,WNW,297,0.0,0.0,35,0.00,,,-99.99,wx200d/1.3,2013-06-24 20:00:00,
2013-06-24 13:16:00,67.1,39.0,30.39,WNW,282,0.0,0.0,34,0.00,,,-99.99,wx200d/1.3,2013-06-24 20:16:00,
2013-06-24 13:30:00,67.6,37.0,30.39,NE,42,0.0,0.0,33,0.00,,,-99.99,wx200d/1.3,2013-06-24 20:30:00,
2013-06-24 13:45:00,67.3,39.0,30.39,West,279,0.0,0.0,34,0.00,,,-99.99,wx200d/1.3,2013-06-24 20:45:00,
2013-06-24 14:00:00,66.7,37.0,30.39,West,278,0.0,0.0,34,0.00,,,-99.99,wx200d/1.3,2013-06-24 21:00:00,
2013-06-24 14:15:00,67.3,39.0,30.39,East,90,2.7,2.7,34,0.00,,,-99.99,wx200d/1.3,2013-06-24 21:15:00,
2013-06-24 14:30:00,66.4,39.0,30.39,West,269,0.0,0.0,36,0.00,,,-99.99,wx200d/1.3,2013-06-24 21:30:00,
2013-06-24 14:45:00,66.0,39.0,30.39,West,278,0.0,0.0,38,0.00,,,-99.99,wx200d/1.3,2013-06-24 21:45:00,
2013-06-24 15:01:00,66.2,41.0,30.39,West,270,0.0,0.0,39,0.00,,,-99.99,wx200d/1.3,2013-06-24 22:01:00,
2013-06-24 15:15:00,66.4,41.0,30.39,West,277,0.0,0.0,40,0.00,,,-99.99,wx200d/1.3,2013-06-24 22:15:00,
2013-06-24 15:30:00,66.6,41.0,30.36,East,86,0.0,0.0,40,0.00,,,-99.99,wx200d/1.3,2013-06-24 22:30:00,
2013-06-24 16:00:00,66.6,43.0,30.36,West,268,0.0,0.0,42,0.00,,,-99.99,wx200d/1.3,2013-06-24 23:00:00,
2013-06-24 16:15:00,66.6,43.0,30.39,WSW,248,0.0,0.0,43,0.00,,,-99.99,wx200d/1.3,2013-06-24 23:15:00,
2013-06-24 16:30:00,66.7,43.0,30.39,West,268,0.0,0.0,42,0.00,,,-99.99,wx200d/1.3,2013-06-24 23:30:00,
2013-06-24 16:45:00,65.1,41.0,30.39,East,81,0.0,0.0,43,0.00,,,-99.99,wx200d/1.3,2013-06-24 23:45:00,
2013-06-24 17:00:00,65.1,43.0,30.39,East,84,0.0,0.0,45,0.00,,,-99.99,wx200d/1.3,2013-06-25 00:00:00,
2013-06-24 17:15:00,65.5,43.0,30.39,East,79,0.0,0.0,44,0.00,,,-99.99,wx200d/1.3,2013-06-25 00:15:00,
2013-06-24 17:30:00,67.6,43.0,30.39,East,80,0.0,0.0,40,0.00,,,-99.99,wx200d/1.3,2013-06-25 00:30:00,
2013-06-24 17:45:00,66.7,39.0,30.39,ENE,75,0.0,0.0,38,0.00,,,-99.99,wx200d/1.3,2013-06-25 00:45:00,
2013-06-24 18:00:00,66.0,41.0,30.39,West,277,0.0,0.0,40,0.00,,,-99.99,wx200d/1.3,2013-06-25 01:00:00,
2013-06-24 18:15:00,64.9,43.0,30.36,West,271,0.0,0.0,44,0.00,,,-99.99,wx200d/1.3,2013-06-25 01:15:00,
2013-06-24 18:45:00,63.9,43.0,30.39,West,276,0.0,0.0,47,0.00,,,-99.99,wx200d/1.3,2013-06-25 01:45:00,
2013-06-24 19:01:00,63.3,45.0,30.39,West,276,0.0,0.0,51,0.00,,,-99.99,wx200d/1.3,2013-06-25 02:01:00,
2013-06-24 19:16:00,62.8,45.0,30.39,West,276,0.0,0.0,53,0.00,,,-99.99,wx200d/1.3,2013-06-25 02:16:00,
2013-06-24 19:30:00,61.5,45.0,30.39,West,276,0.0,0.0,56,0.00,,,-99.99,wx200d/1.3,2013-06-25 02:30:00,
2013-06-24 19:45:00,60.8,48.0,30.39,WNW,293,0.0,0.0,62,0.00,,,-99.99,wx200d/1.3,2013-06-25 02:45:00,
2013-06-24 20:00:00,60.4,50.0,30.39,West,277,0.0,0.0,67,0.00,,,-99.99,wx200d/1.3,2013-06-25 03:00:00,
2013-06-24 20:30:00,60.6,52.0,30.36,West,277,0.0,0.0,71,0.00,,,-99.99,wx200d/1.3,2013-06-25 03:30:00,
2013-06-24 20:45:00,61.0,52.0,30.39,West,277,0.0,0.0,71,0.00,,,-99.99,wx200d/1.3,2013-06-25 03:45:00,
2013-06-24 21:00:00,61.0,52.0,30.39,SW,221,0.0,0.0,72,0.00,,,-99.99,wx200d/1.3,2013-06-25 04:00:00,
2013-06-24 21:15:00,61.3,52.0,30.39,SW,220,0.0,0.0,72,0.00,,,-99.99,wx200d/1.3,2013-06-25 04:15:00,
2013-06-24 21:30:00,61.3,52.0,30.39,SW,219,0.0,0.0,72,0.00,,,-99.99,wx200d/1.3,2013-06-25 04:30:00,
2013-06-24 21:45:00,61.5,52.0,30.39,ENE,73,0.0,0.0,71,0.00,,,-99.99,wx200d/1.3,2013-06-25 04:45:00,
2013-06-24 22:00:00,61.7,54.0,30.39,ENE,73,0.0,0.0,71,0.00,,,-99.99,wx200d/1.3,2013-06-25 05:00:00,
2013-06-24 22:15:00,61.5,52.0,30.39,ENE,73,0.0,0.0,71,0.00,,,-99.99,wx200d/1.3,2013-06-25 05:15:00,
2013-06-24 22:30:00,61.5,52.0,30.42,ENE,73,0.0,0.0,70,0.00,,,-99.99,wx200d/1.3,2013-06-25 05:30:00,
2013-06-24 22:45:00,61.3,52.0,30.39,ENE,73,0.0,0.0,70,0.00,,,-99.99,wx200d/1.3,2013-06-25 05:45:00,
2013-06-24 23:00:00,61.3,52.0,30.42,ENE,73,0.0,0.0,70,0.00,,,-99.99,wx200d/1.3,2013-06-25 06:00:00,
2013-06-24 23:15:00,61.3,52.0,30.39,ENE,73,0.0,0.0,70,0.00,,,-99.99,wx200d/1.3,2013-06-25 06:15:00,
2013-06-24 23:30:00,61.5,52.0,30.39,ENE,73,0.0,0.0,70,0.00,,,-99.99,wx200d/1.3,2013-06-25 06:30:00,
2013-06-24 23:45:00,61.7,52.0,30.39,ENE,73,0.0,0.0,69,0.00,,,-99.99,wx200d/1.3,2013-06-25 06:45:00,